Weather at Gong Kedak Airport

Public forecast

Using degrees Celsius for public forecast. Weather courtesy of forecast.io.

Closest aviation weather report (METAR) to Gong Kedak Airport

Closest report is Sultan Ismail Petra Airport, 24.8 nm (46.0 km) NNW.

2022/11/29 10:00 (retrieved 51 minutes ago)

WMKC 291000Z 08007KT 030V110 9999 FEW018 29/25 Q1007

Closest aviation forecast (TAF) to Gong Kedak Airport

Closest forecast is Sultan Ismail Petra Airport, 24.8 nm (46.0 km) NNW.

2022/11/29 06:00 (retrieved 5 hours ago)

TAF WMKC 290500Z 2906/3006 04008KT 9999 FEW018